createdAt,value
2023-04-12T00:00:50.907Z,9.80
2023-04-12T00:03:22.117Z,9.80
2023-04-12T00:05:55.308Z,9.70
2023-04-12T00:08:26.286Z,9.70
2023-04-12T00:10:54.871Z,9.70
2023-04-12T00:13:23.090Z,9.70
2023-04-12T00:15:51.668Z,9.60
2023-04-12T00:18:21.778Z,9.70
2023-04-12T00:20:50.870Z,9.60
2023-04-12T00:23:19.280Z,9.60
2023-04-12T00:25:47.668Z,9.60
2023-04-12T00:28:16.627Z,9.50
2023-04-12T00:30:45.943Z,9.40
2023-04-12T00:33:14.272Z,9.40
2023-04-12T00:35:44.099Z,9.40
2023-04-12T00:38:13.013Z,9.30
2023-04-12T00:40:42.733Z,9.30
2023-04-12T00:43:18.696Z,9.30
2023-04-12T00:45:48.424Z,9.30
2023-04-12T00:48:17.524Z,9.30
2023-04-12T00:50:47.568Z,9.30
2023-04-12T00:53:17.712Z,9.30
2023-04-12T00:55:46.887Z,9.30
2023-04-12T00:58:15.998Z,9.40
2023-04-12T01:00:50.240Z,9.40
2023-04-12T01:03:22.954Z,9.40
2023-04-12T01:06:01.186Z,9.40
2023-04-12T01:08:40.551Z,9.40
2023-04-12T01:11:16.105Z,9.30
2023-04-12T01:13:50.098Z,9.30
2023-04-12T01:16:26.450Z,9.30
2023-04-12T01:19:03.791Z,9.30
2023-04-12T01:21:46.300Z,9.30
2023-04-12T01:24:29.030Z,9.30
2023-04-12T01:27:00.754Z,9.30
2023-04-12T01:29:32.316Z,9.30
2023-04-12T01:32:02.369Z,9.30
2023-04-12T01:34:33.439Z,9.30
2023-04-12T01:37:03.997Z,9.40
2023-04-12T01:39:33.661Z,9.40
2023-04-12T01:42:03.630Z,9.40
2023-04-12T01:44:33.387Z,9.40
2023-04-12T01:47:01.722Z,9.30
2023-04-12T01:49:37.572Z,9.20
2023-04-12T01:52:13.154Z,9.20
2023-04-12T01:54:45.745Z,9.20
2023-04-12T01:57:16.205Z,9.10
2023-04-12T01:59:48.865Z,9.10
2023-04-12T02:02:18.214Z,9.10
2023-04-12T02:04:47.982Z,9.00
2023-04-12T02:07:18.866Z,9.00
2023-04-12T02:09:47.259Z,8.90
2023-04-12T02:12:15.538Z,8.90
2023-04-12T02:14:45.465Z,8.90
2023-04-12T02:17:14.249Z,8.90
2023-04-12T02:19:42.681Z,8.80
2023-04-12T02:22:12.348Z,8.80
2023-04-12T02:24:41.456Z,8.70
2023-04-12T02:27:09.759Z,8.70
2023-04-12T02:29:39.486Z,8.70
2023-04-12T02:32:09.172Z,8.70
2023-04-12T02:34:38.405Z,8.70
2023-04-12T02:37:17.779Z,8.60
2023-04-12T02:39:46.161Z,8.60
2023-04-12T02:42:14.514Z,8.50
2023-04-12T02:44:47.700Z,8.50
2023-04-12T02:47:18.122Z,8.50
2023-04-12T02:49:49.539Z,8.50
2023-04-12T02:52:20.131Z,8.40
2023-04-12T02:55:09.953Z,8.30
2023-04-12T02:57:38.350Z,8.30
2023-04-12T03:00:12.051Z,8.30
2023-04-12T03:02:45.950Z,8.30
2023-04-12T03:05:22.870Z,8.20
2023-04-12T03:07:52.186Z,8.20
2023-04-12T03:10:25.775Z,8.30
2023-04-12T03:13:05.004Z,8.30
2023-04-12T03:15:49.562Z,8.30
2023-04-12T03:18:21.765Z,8.30
2023-04-12T03:20:53.555Z,8.30
2023-04-12T03:23:22.080Z,8.40
2023-04-12T03:25:59.437Z,8.40
2023-04-12T03:28:32.664Z,8.40
2023-04-12T03:31:03.045Z,8.40
2023-04-12T03:33:41.633Z,8.50
2023-04-12T03:36:21.236Z,8.40
2023-04-12T03:38:54.856Z,8.50
2023-04-12T03:41:24.338Z,8.50
2023-04-12T03:43:52.723Z,8.50
2023-04-12T03:46:21.807Z,8.40
2023-04-12T03:48:58.724Z,8.50
2023-04-12T03:51:30.826Z,8.50
2023-04-12T03:54:04.812Z,8.50
2023-04-12T03:56:46.375Z,8.50
2023-04-12T03:59:22.740Z,8.60
2023-04-12T04:01:52.218Z,8.60
2023-04-12T04:04:22.507Z,8.50
2023-04-12T04:06:54.913Z,8.50
2023-04-12T04:09:23.496Z,8.50
2023-04-12T04:11:53.688Z,8.60
2023-04-12T04:14:23.309Z,8.50
2023-04-12T04:16:53.142Z,8.50
2023-04-12T04:19:23.895Z,8.40
2023-04-12T04:21:52.792Z,8.40
2023-04-12T04:24:22.465Z,8.40
2023-04-12T04:26:57.333Z,8.40
2023-04-12T04:29:29.178Z,8.40
2023-04-12T04:31:58.548Z,8.30
2023-04-12T04:34:29.408Z,8.30
2023-04-12T04:37:07.986Z,8.30
2023-04-12T04:39:36.319Z,8.20
2023-04-12T04:42:06.717Z,8.20
2023-04-12T04:44:40.144Z,8.20
2023-04-12T04:47:10.967Z,8.20
2023-04-12T04:49:41.261Z,8.20
2023-04-12T04:52:25.567Z,8.10
2023-04-12T04:54:58.196Z,8.20
2023-04-12T04:57:31.057Z,8.20
2023-04-12T04:59:59.463Z,8.10
2023-04-12T05:02:28.590Z,8.10
2023-04-12T05:04:59.980Z,8.10
2023-04-12T05:07:29.375Z,8.10
2023-04-12T05:09:57.676Z,8.10
2023-04-12T05:12:26.054Z,8.00
2023-04-12T05:15:10.747Z,8.00
2023-04-12T05:17:40.001Z,8.00
2023-04-12T05:20:11.966Z,7.90
2023-04-12T05:22:40.752Z,7.90
2023-04-12T05:25:09.819Z,7.90
2023-04-12T05:27:45.993Z,7.80
2023-04-12T05:30:17.518Z,7.80
2023-04-12T05:32:46.543Z,7.70
2023-04-12T05:35:18.235Z,7.70
2023-04-12T05:37:47.986Z,7.70
2023-04-12T05:40:16.399Z,7.70
2023-04-12T05:42:45.429Z,7.70
2023-04-12T05:45:14.566Z,7.70
2023-04-12T05:48:57.045Z,7.60
2023-04-12T05:51:41.013Z,7.60
2023-04-12T05:54:35.129Z,7.60
2023-04-12T05:57:19.449Z,7.50
2023-04-12T06:00:32.807Z,7.50
2023-04-12T06:03:15.485Z,7.50
2023-04-12T06:06:04.644Z,7.50
2023-04-12T06:08:55.056Z,7.40
2023-04-12T06:11:44.271Z,7.40
2023-04-12T06:14:32.527Z,7.40
2023-04-12T06:17:23.225Z,7.40
2023-04-12T06:20:13.885Z,7.40
2023-04-12T06:26:38.811Z,7.40
2023-04-12T06:29:45.426Z,7.50
2023-04-12T06:32:24.446Z,7.60
2023-04-12T06:35:04.351Z,7.70
2023-04-12T06:37:43.146Z,7.80
2023-04-12T06:46:13.282Z,8.10
2023-04-12T06:48:42.143Z,8.30
2023-04-12T06:51:12.001Z,8.50
2023-04-12T06:53:40.764Z,8.90
2023-04-12T06:56:12.996Z,9.20
2023-04-12T08:16:32.644Z,11.40
2023-04-12T08:19:01.179Z,11.20
2023-04-12T08:21:30.149Z,11.10
2023-04-12T08:23:58.811Z,11.10
2023-04-12T08:26:29.741Z,11.00
2023-04-12T08:28:58.548Z,11.40
2023-04-12T08:31:27.117Z,11.50
2023-04-12T08:33:57.796Z,11.50
2023-04-12T08:36:27.281Z,11.40
2023-04-12T08:38:59.741Z,11.60
2023-04-12T08:41:28.566Z,11.80
2023-04-12T08:43:57.172Z,11.90
2023-04-12T08:46:28.223Z,12.30
2023-04-12T08:48:58.433Z,13.30
2023-04-12T08:51:27.480Z,14.10
2023-04-12T08:53:56.707Z,15.00
2023-04-12T08:56:26.066Z,15.70
2023-04-12T08:58:54.677Z,16.40
2023-04-12T09:01:23.231Z,16.80
2023-04-12T09:03:51.992Z,17.20
2023-04-12T09:06:21.962Z,16.70
2023-04-12T09:08:54.997Z,16.00
2023-04-12T09:11:24.751Z,16.00
2023-04-12T09:13:53.270Z,15.50
2023-04-12T09:16:40.568Z,15.50
2023-04-12T09:19:10.505Z,15.70
2023-04-12T09:21:53.723Z,15.80
2023-04-12T09:24:24.275Z,15.60
2023-04-12T09:27:03.934Z,15.30
2023-04-12T09:30:08.487Z,15.30
2023-04-12T09:32:37.232Z,15.80
2023-04-12T09:35:06.472Z,15.80
2023-04-12T09:47:53.511Z,16.70
2023-04-12T09:54:09.284Z,15.30
2023-04-12T09:56:49.516Z,14.60
2023-04-12T09:59:24.089Z,14.20
2023-04-12T10:02:20.930Z,14.80
2023-04-12T10:05:13.235Z,15.40
2023-04-12T10:07:53.401Z,15.20
2023-04-12T10:10:41.664Z,15.40
2023-04-12T10:13:12.518Z,15.30
2023-04-12T10:15:46.695Z,15.10
2023-04-12T10:18:17.542Z,15.00
2023-04-12T10:21:22.970Z,15.50
2023-04-12T10:23:56.680Z,15.10
2023-04-12T10:26:39.281Z,14.60
2023-04-12T10:29:31.103Z,14.70
2023-04-12T10:32:23.304Z,14.50
2023-04-12T10:35:00.790Z,14.60
2023-04-12T10:38:06.314Z,14.60
2023-04-12T10:40:56.582Z,14.30
2023-04-12T10:43:30.301Z,14.30
2023-04-12T10:46:04.264Z,14.30
2023-04-12T10:48:36.329Z,14.60
2023-04-12T10:51:15.590Z,14.60
2023-04-12T10:53:46.849Z,14.50
2023-04-12T10:56:40.836Z,14.70
2023-04-12T11:00:12.315Z,15.70
2023-04-12T11:21:54.097Z,14.00
2023-04-12T11:24:59.380Z,13.90
2023-04-12T11:27:47.674Z,13.70
2023-04-12T11:30:37.300Z,14.30
2023-04-12T11:33:13.108Z,15.10
2023-04-12T11:36:01.028Z,15.60
2023-04-12T11:38:59.573Z,16.30
2023-04-12T11:41:30.898Z,16.70
2023-04-12T11:44:25.425Z,17.00
2023-04-12T11:47:04.193Z,17.10
2023-04-12T11:49:35.416Z,17.30
2023-04-12T11:52:16.704Z,17.30
2023-04-12T11:55:01.961Z,17.40
2023-04-12T11:57:31.214Z,17.40
2023-04-12T12:00:00.556Z,17.40
2023-04-12T12:02:34.622Z,17.60
2023-04-12T12:05:08.961Z,17.70
2023-04-12T12:07:39.495Z,17.80
2023-04-12T12:11:08.508Z,17.50
2023-04-12T12:17:36.182Z,17.20
2023-04-12T12:20:31.633Z,17.00
2023-04-12T12:23:51.508Z,16.80
2023-04-12T12:26:37.773Z,16.50
2023-04-12T12:29:27.718Z,16.30
2023-04-12T12:31:58.352Z,16.20
2023-04-12T12:34:34.560Z,16.30
2023-04-12T12:37:05.233Z,16.20
2023-04-12T12:40:07.042Z,16.30
2023-04-12T12:43:06.937Z,16.40
2023-04-12T12:46:13.073Z,16.30
2023-04-12T12:51:26.853Z,15.50
2023-04-12T12:54:10.607Z,15.20
2023-04-12T12:56:39.527Z,15.40
2023-04-12T12:59:20.029Z,15.30
2023-04-12T13:01:48.775Z,15.30
2023-04-12T13:04:17.534Z,15.40
2023-04-12T13:06:46.482Z,15.40
2023-04-12T13:09:18.141Z,15.30
2023-04-12T13:11:48.929Z,15.30
2023-04-12T13:14:23.163Z,15.40
2023-04-12T13:16:52.724Z,15.50
2023-04-12T13:19:29.062Z,15.30
2023-04-12T13:22:02.295Z,15.30
2023-04-12T13:24:32.634Z,15.30
2023-04-12T13:27:02.969Z,15.10
2023-04-12T13:29:34.837Z,15.00
2023-04-12T13:32:09.723Z,14.70
2023-04-12T13:35:07.957Z,14.50
2023-04-12T13:37:36.523Z,14.00
2023-04-12T13:40:05.868Z,13.90
2023-04-12T13:42:34.502Z,13.90
2023-04-12T13:45:17.336Z,13.90
2023-04-12T13:47:46.390Z,14.00
2023-04-12T13:50:14.955Z,14.10
2023-04-12T13:52:43.429Z,14.10
2023-04-12T13:55:11.920Z,14.00
2023-04-12T13:57:40.392Z,14.00
2023-04-12T14:00:12.153Z,14.00
2023-04-12T14:02:40.690Z,14.10
2023-04-12T14:05:11.458Z,14.10
2023-04-12T14:07:43.334Z,14.30
2023-04-12T14:10:12.249Z,14.40
2023-04-12T14:12:40.677Z,14.40
2023-04-12T14:15:11.648Z,14.20
2023-04-12T14:17:40.809Z,14.10
2023-04-12T14:20:12.658Z,14.00
2023-04-12T14:22:41.448Z,13.90
2023-04-12T14:25:11.895Z,13.90
2023-04-12T14:27:40.456Z,13.90
2023-04-12T14:30:14.510Z,13.80
2023-04-12T14:32:46.783Z,13.90
2023-04-12T14:35:16.886Z,13.90
2023-04-12T14:37:46.283Z,13.90
2023-04-12T14:40:15.552Z,13.90
2023-04-12T14:42:43.844Z,13.80
2023-04-12T14:45:14.824Z,13.90
2023-04-12T14:47:43.282Z,13.80
2023-04-12T14:53:19.654Z,13.40
2023-04-12T14:55:48.272Z,12.90
2023-04-12T14:58:17.067Z,12.80
2023-04-12T15:00:47.856Z,12.30
2023-04-12T15:03:17.253Z,12.10
2023-04-12T15:05:46.006Z,12.10
2023-04-12T15:08:14.413Z,12.20
2023-04-12T17:15:01.530Z,9.50
2023-04-12T17:17:30.242Z,9.40
2023-04-12T17:19:58.767Z,9.40
2023-04-12T17:22:27.508Z,9.40
2023-04-12T17:24:56.043Z,9.30
2023-04-12T17:27:24.646Z,9.30
2023-04-12T17:29:53.161Z,9.20
2023-04-12T17:32:23.177Z,9.20
2023-04-12T17:34:55.209Z,9.20
2023-04-12T17:37:24.407Z,9.20
2023-04-12T17:39:53.343Z,9.20
2023-04-12T17:42:22.846Z,9.20
2023-04-12T17:44:51.304Z,9.30
2023-04-12T17:47:19.884Z,9.30
2023-04-12T17:53:01.835Z,9.40
2023-04-12T17:55:30.480Z,9.40
2023-04-12T17:57:59.227Z,9.50
2023-04-12T18:00:27.867Z,9.50
2023-04-12T18:02:56.615Z,9.50
2023-04-12T18:05:26.788Z,9.50
2023-04-12T18:07:57.068Z,9.50
2023-04-12T18:10:26.801Z,9.50
2023-04-12T18:12:56.459Z,9.50
2023-04-12T18:15:25.114Z,9.60
2023-04-12T18:17:53.877Z,9.60
2023-04-12T18:20:22.660Z,9.50
2023-04-12T18:23:03.159Z,9.50
2023-04-12T18:25:32.855Z,9.50
2023-04-12T18:28:04.209Z,9.50
2023-04-12T18:30:32.808Z,9.50
2023-04-12T18:33:03.955Z,9.40
2023-04-12T18:35:32.768Z,9.40
2023-04-12T18:38:02.672Z,9.40
2023-04-12T18:40:31.218Z,9.40
2023-04-12T18:43:02.885Z,9.30
2023-04-12T18:45:31.522Z,9.30
2023-04-12T18:48:00.300Z,9.30
2023-04-12T18:50:29.304Z,9.30
2023-04-12T18:52:57.784Z,9.30
2023-04-12T18:55:27.791Z,9.20
2023-04-12T18:57:56.503Z,9.20
2023-04-12T19:00:25.145Z,9.10
2023-04-12T19:02:53.723Z,9.20
2023-04-12T19:05:22.848Z,9.10
2023-04-12T19:07:52.375Z,9.10
2023-04-12T19:10:24.307Z,9.10
2023-04-12T19:12:55.008Z,9.10
2023-04-12T19:15:23.458Z,9.10
2023-04-12T19:17:52.159Z,9.10
2023-04-12T19:20:20.944Z,9.10
2023-04-12T19:22:51.329Z,9.10
2023-04-12T19:25:20.448Z,9.00
2023-04-12T19:27:50.333Z,9.00
2023-04-12T19:30:23.621Z,9.00
2023-04-12T19:32:53.450Z,9.00
2023-04-12T19:35:22.812Z,8.90
2023-04-12T19:37:54.545Z,8.90
2023-04-12T19:40:23.548Z,8.90
2023-04-12T19:42:53.381Z,8.90
2023-04-12T19:45:26.286Z,8.90
2023-04-12T19:47:55.982Z,8.90
2023-04-12T19:50:25.534Z,8.90
2023-04-12T19:52:55.293Z,8.90
2023-04-12T19:55:24.349Z,8.80
2023-04-12T19:57:53.435Z,8.90
2023-04-12T20:00:25.409Z,8.80
2023-04-12T20:02:55.862Z,8.80
2023-04-12T20:05:25.254Z,8.80
2023-04-12T20:07:55.994Z,8.80
2023-04-12T20:10:25.013Z,8.80
2023-04-12T20:12:54.147Z,8.70
2023-04-12T20:15:24.576Z,8.70
2023-04-12T20:17:54.116Z,8.70
2023-04-12T20:20:24.464Z,8.70
2023-04-12T20:22:53.408Z,8.70
2023-04-12T20:25:22.338Z,8.70
2023-04-12T20:27:53.163Z,8.60
2023-04-12T20:30:24.237Z,8.60
2023-04-12T20:32:55.495Z,8.60
2023-04-12T20:35:24.283Z,8.60
2023-04-12T20:37:52.974Z,8.60
2023-04-12T20:40:23.787Z,8.60
2023-04-12T20:42:52.744Z,8.60
2023-04-12T20:45:24.753Z,8.60
2023-04-12T20:47:53.841Z,8.60
2023-04-12T20:50:24.593Z,8.60
2023-04-12T20:52:53.709Z,8.70
2023-04-12T20:55:33.968Z,8.60
2023-04-12T20:58:03.684Z,8.70
2023-04-12T21:00:34.315Z,8.70
2023-04-12T21:03:03.243Z,8.60
2023-04-12T21:05:33.809Z,8.50
2023-04-12T21:08:02.430Z,8.50
2023-04-12T21:10:30.803Z,8.50
2023-04-12T21:13:01.998Z,8.40
2023-04-12T21:15:31.979Z,8.40
2023-04-12T21:18:02.381Z,8.30
2023-04-12T21:20:31.290Z,8.30
2023-04-12T21:22:59.721Z,8.20
2023-04-12T21:25:28.140Z,8.20
2023-04-12T21:27:56.551Z,8.10
2023-04-12T21:30:25.175Z,8.10
2023-04-12T21:32:55.393Z,8.10
2023-04-12T21:35:25.872Z,8.10
2023-04-12T21:37:54.922Z,8.00
2023-04-12T21:40:23.694Z,8.00
2023-04-12T21:42:52.048Z,8.00
2023-04-12T21:45:24.256Z,8.00
2023-04-12T21:47:54.352Z,7.90
2023-04-12T21:50:24.291Z,7.90
2023-04-12T21:52:52.680Z,7.90
2023-04-12T21:55:24.272Z,7.90
2023-04-12T21:57:53.000Z,7.90
2023-04-12T22:00:22.098Z,7.80
2023-04-12T22:02:50.824Z,7.80
2023-04-12T22:05:19.515Z,7.80
2023-04-12T22:07:50.233Z,7.80
2023-04-12T22:10:20.365Z,7.80
2023-04-12T22:12:50.362Z,7.80
2023-04-12T22:15:19.627Z,7.80
2023-04-12T22:17:48.490Z,7.70
2023-04-12T22:20:16.769Z,7.80
2023-04-12T22:22:45.141Z,7.70
2023-04-12T22:25:15.599Z,7.70
2023-04-12T22:27:46.388Z,7.70
2023-04-12T22:30:15.803Z,7.70
2023-04-12T22:32:44.161Z,7.60
2023-04-12T22:35:12.788Z,7.60
2023-04-12T22:37:43.096Z,7.60
2023-04-12T22:40:13.583Z,7.60
2023-04-12T22:42:46.922Z,7.60
2023-04-12T22:45:16.033Z,7.60
2023-04-12T22:47:44.723Z,7.60
2023-04-12T22:50:13.643Z,7.60
2023-04-12T22:52:42.113Z,7.60
2023-04-12T22:55:12.844Z,7.50
2023-04-12T22:57:41.169Z,7.50
2023-04-12T23:00:16.525Z,7.60
2023-04-12T23:02:46.744Z,7.50
2023-04-12T23:05:16.330Z,7.50
2023-04-12T23:07:44.834Z,7.50
2023-04-12T23:10:13.299Z,7.50
2023-04-12T23:12:41.698Z,7.50
2023-04-12T23:15:12.679Z,7.50
2023-04-12T23:17:41.075Z,7.40
2023-04-12T23:20:13.257Z,7.40
2023-04-12T23:22:57.257Z,7.40
2023-04-12T23:25:37.956Z,7.40
2023-04-12T23:28:13.000Z,7.40
2023-04-12T23:30:47.840Z,7.30
2023-04-12T23:33:18.202Z,7.40
2023-04-12T23:35:47.295Z,7.30
2023-04-12T23:38:23.062Z,7.30
2023-04-12T23:40:55.505Z,7.30
2023-04-12T23:43:25.048Z,7.30
2023-04-12T23:45:55.100Z,7.30
2023-04-12T23:48:24.135Z,7.30
2023-04-12T23:50:52.699Z,7.30
2023-04-12T23:53:21.731Z,7.30
2023-04-12T23:55:52.021Z,7.30
2023-04-12T23:58:25.405Z,7.30
